createdAt,value
2023-04-26T00:03:04.753Z,13.61
2023-04-26T00:08:07.850Z,13.68
2023-04-26T00:13:11.042Z,11.42
2023-04-26T00:18:13.648Z,10.31
2023-04-26T00:23:17.390Z,13.11
2023-04-26T00:28:20.259Z,13.52
2023-04-26T00:33:23.071Z,11.22
2023-04-26T00:38:25.716Z,9.77
2023-04-26T00:43:28.382Z,10.44
2023-04-26T00:48:31.062Z,13.51
2023-04-26T00:53:36.776Z,12.27
2023-04-26T00:58:39.482Z,10.20
2023-04-26T01:03:44.557Z,10.71
2023-04-26T01:08:47.328Z,13.39
2023-04-26T01:13:51.549Z,11.80
2023-04-26T01:18:54.732Z,10.11
2023-04-26T01:23:57.445Z,9.32
2023-04-26T01:28:59.976Z,11.90
2023-04-26T01:34:02.540Z,13.35
2023-04-26T01:39:05.778Z,11.28
2023-04-26T01:44:08.420Z,9.63
2023-04-26T01:49:11.141Z,8.57
2023-04-26T01:54:13.733Z,9.56
2023-04-26T01:59:16.358Z,12.70
2023-04-26T02:04:18.965Z,12.38
2023-04-26T02:09:21.570Z,10.43
2023-04-26T02:14:24.165Z,9.24
2023-04-26T02:19:26.965Z,10.83
2023-04-26T02:24:30.585Z,13.28
2023-04-26T02:29:43.974Z,11.26
2023-04-26T02:34:47.826Z,9.62
2023-04-26T02:39:51.831Z,10.28
2023-04-26T02:44:54.553Z,12.82
2023-04-26T02:49:57.248Z,11.03
2023-04-26T02:55:01.124Z,9.21
2023-04-26T03:00:05.671Z,8.12
2023-04-26T03:05:09.552Z,10.63
2023-04-26T03:10:13.028Z,11.93
2023-04-26T03:15:15.858Z,9.64
2023-04-26T03:20:19.494Z,8.73
2023-04-26T03:25:22.163Z,11.56
2023-04-26T03:30:24.836Z,10.54
2023-04-26T03:35:27.477Z,8.57
2023-04-26T03:40:30.124Z,8.98
2023-04-26T03:45:32.757Z,11.32
2023-04-26T03:50:35.368Z,9.50
2023-04-26T03:55:37.970Z,7.99
2023-04-26T04:00:43.806Z,9.40
2023-04-26T04:05:46.496Z,12.29
2023-04-26T04:10:49.377Z,11.27
2023-04-26T04:15:52.325Z,11.34
2023-04-26T04:20:55.109Z,11.68
2023-04-26T04:25:57.847Z,12.18
2023-04-26T04:31:01.879Z,12.64
2023-04-26T04:36:05.232Z,13.30
2023-04-26T04:41:08.985Z,14.22
2023-04-26T04:46:12.667Z,15.29
2023-04-26T04:51:15.646Z,16.12
2023-04-26T04:56:19.480Z,16.75
2023-04-26T05:01:22.459Z,17.35
2023-04-26T05:06:25.463Z,18.02
2023-04-26T05:11:28.230Z,18.72
2023-04-26T05:16:30.837Z,19.56
2023-04-26T05:21:33.714Z,20.20
2023-04-26T05:26:36.698Z,20.49
2023-04-26T05:31:39.323Z,20.62
2023-04-26T05:36:41.912Z,21.04
2023-04-26T05:41:44.690Z,20.93
2023-04-26T05:46:47.522Z,20.66
2023-04-26T05:51:50.324Z,19.45
2023-04-26T05:56:52.945Z,18.33
2023-04-26T06:01:55.660Z,18.84
2023-04-26T06:06:58.606Z,19.12
2023-04-26T06:12:02.355Z,19.63
2023-04-26T06:17:05.121Z,20.78
2023-04-26T06:22:07.782Z,21.88
2023-04-26T06:27:10.381Z,22.54
2023-04-26T06:32:13.071Z,23.10
2023-04-26T06:37:16.243Z,23.54
2023-04-26T06:42:18.838Z,22.44
2023-04-26T06:47:21.658Z,20.80
2023-04-26T06:52:24.384Z,19.70
2023-04-26T06:57:27.006Z,19.08
2023-04-26T07:02:29.981Z,19.25
2023-04-26T07:07:33.254Z,19.05
2023-04-26T07:12:36.041Z,18.73
2023-04-26T07:17:38.753Z,18.38
2023-04-26T07:22:41.374Z,18.20
2023-04-26T07:27:47.503Z,18.36
2023-04-26T07:32:50.426Z,17.98
2023-04-26T07:37:53.164Z,17.80
2023-04-26T07:42:55.796Z,17.31
2023-04-26T07:47:58.523Z,16.41
2023-04-26T07:53:01.122Z,15.78
2023-04-26T07:58:04.433Z,15.69
2023-04-26T08:03:08.364Z,15.48
2023-04-26T08:08:11.101Z,15.09
2023-04-26T08:13:14.205Z,14.60
2023-04-26T08:18:16.956Z,14.37
2023-04-26T08:23:19.713Z,14.57
2023-04-26T08:28:22.266Z,14.99
2023-04-26T08:33:25.729Z,14.61
2023-04-26T08:38:29.703Z,13.97
2023-04-26T08:43:35.495Z,13.33
2023-04-26T08:48:38.143Z,12.72
2023-04-26T08:53:41.883Z,12.32
2023-04-26T08:58:45.047Z,12.16
2023-04-26T09:03:48.356Z,12.09
2023-04-26T09:08:55.036Z,12.19
2023-04-26T09:13:57.767Z,12.74
2023-04-26T09:19:00.852Z,13.54
2023-04-26T09:24:04.724Z,13.68
2023-04-26T09:29:20.528Z,13.61
2023-04-26T09:34:23.267Z,13.73
2023-04-26T09:39:38.160Z,13.96
2023-04-26T09:44:40.811Z,14.02
2023-04-26T09:49:51.815Z,13.91
2023-04-26T09:54:56.910Z,13.66
2023-04-26T10:00:00.901Z,13.39
2023-04-26T10:05:06.205Z,13.12
2023-04-26T10:10:11.750Z,12.90
2023-04-26T10:15:15.515Z,13.18
2023-04-26T10:20:21.318Z,13.27
2023-04-26T10:25:39.106Z,13.00
2023-04-26T10:30:59.713Z,12.57
2023-04-26T10:36:13.770Z,12.27
2023-04-26T10:41:31.083Z,12.13
2023-04-26T10:46:40.268Z,12.10
2023-04-26T10:52:35.593Z,12.23
2023-04-26T10:57:54.352Z,12.45
2023-04-26T11:03:07.098Z,12.81
2023-04-26T11:08:25.016Z,12.77
2023-04-26T11:13:31.736Z,12.33
2023-04-26T11:18:38.765Z,11.97
2023-04-26T11:23:41.640Z,12.04
2023-04-26T11:28:45.723Z,12.14
2023-04-26T11:33:50.624Z,11.99
2023-04-26T11:38:54.276Z,11.81
2023-04-26T11:43:59.695Z,11.54
2023-04-26T11:49:02.483Z,11.28
2023-04-26T11:54:05.169Z,11.18
2023-04-26T11:59:07.992Z,11.25
2023-04-26T12:04:10.937Z,11.63
2023-04-26T12:09:13.990Z,11.99
2023-04-26T12:14:16.640Z,12.11
2023-04-26T12:19:24.146Z,12.08
2023-04-26T12:24:36.997Z,11.97
2023-04-26T12:29:39.740Z,11.82
2023-04-26T12:34:42.342Z,11.56
2023-04-26T12:39:47.062Z,11.15
2023-04-26T12:44:49.648Z,10.91
2023-04-26T12:49:52.436Z,10.86
2023-04-26T12:54:59.547Z,10.94
2023-04-26T13:00:14.787Z,11.12
2023-04-26T13:05:17.476Z,11.41
2023-04-26T13:10:20.204Z,11.72
2023-04-26T13:15:24.836Z,11.92
2023-04-26T13:20:29.594Z,11.95
2023-04-26T13:25:33.541Z,11.87
2023-04-26T13:30:36.720Z,11.86
2023-04-26T13:35:39.297Z,11.81
2023-04-26T13:40:41.890Z,11.82
2023-04-26T13:45:44.496Z,11.71
2023-04-26T13:50:47.081Z,11.56
2023-04-26T13:55:49.756Z,11.38
2023-04-26T14:00:52.613Z,11.34
2023-04-26T14:05:56.655Z,11.44
2023-04-26T14:10:59.628Z,11.49
2023-04-26T14:16:02.248Z,11.24
2023-04-26T14:21:05.329Z,10.90
2023-04-26T14:26:08.490Z,10.57
2023-04-26T14:31:11.302Z,10.35
2023-04-26T14:36:13.936Z,10.29
2023-04-26T14:41:18.346Z,10.35
2023-04-26T14:46:21.068Z,10.46
2023-04-26T14:51:24.058Z,10.60
2023-04-26T14:56:26.982Z,10.76
2023-04-26T15:01:31.263Z,10.87
2023-04-26T15:06:34.322Z,10.85
2023-04-26T15:11:36.929Z,10.68
2023-04-26T15:16:39.746Z,10.49
2023-04-26T15:21:42.511Z,10.40
2023-04-26T15:26:45.052Z,10.44
2023-04-26T15:31:47.690Z,10.57
2023-04-26T15:36:50.694Z,10.63
2023-04-26T15:41:53.331Z,10.69
2023-04-26T15:46:55.884Z,10.81
2023-04-26T15:51:58.764Z,10.90
2023-04-26T15:57:02.827Z,10.82
2023-04-26T16:02:06.150Z,10.49
2023-04-26T16:07:08.866Z,10.13
2023-04-26T16:12:11.977Z,9.93
2023-04-26T16:17:14.580Z,9.89
2023-04-26T16:22:17.761Z,9.90
2023-04-26T16:27:23.478Z,9.85
2023-04-26T16:32:26.566Z,9.81
2023-04-26T16:37:30.457Z,9.70
2023-04-26T16:42:33.293Z,9.55
2023-04-26T16:47:36.380Z,9.48
2023-04-26T16:52:39.118Z,9.38
2023-04-26T16:57:42.252Z,9.27
2023-04-26T17:02:45.034Z,9.12
2023-04-26T17:07:47.705Z,8.99
2023-04-26T17:12:50.680Z,8.83
2023-04-26T17:17:53.455Z,8.71
2023-04-26T17:22:56.818Z,8.59
2023-04-26T17:27:59.642Z,8.46
2023-04-26T17:33:02.898Z,8.33
2023-04-26T17:38:05.862Z,8.22
2023-04-26T17:43:09.011Z,8.10
2023-04-26T17:48:13.448Z,7.98
2023-04-26T17:53:16.380Z,7.85
2023-04-26T17:58:19.213Z,7.71
2023-04-26T18:03:22.087Z,7.56
2023-04-26T18:08:24.909Z,7.41
2023-04-26T18:13:28.341Z,7.26
2023-04-26T18:18:30.905Z,7.12
2023-04-26T18:23:33.533Z,6.98
2023-04-26T18:28:36.158Z,6.86
2023-04-26T18:33:38.770Z,6.78
2023-04-26T18:38:41.373Z,6.69
2023-04-26T18:43:43.952Z,6.60
2023-04-26T18:48:47.366Z,6.50
2023-04-26T18:53:50.105Z,6.40
2023-04-26T18:58:52.777Z,6.31
2023-04-26T19:03:55.729Z,6.21
2023-04-26T19:08:59.502Z,6.12
2023-04-26T19:14:02.088Z,6.03
2023-04-26T19:19:05.615Z,5.95
2023-04-26T19:24:09.135Z,5.84
2023-04-26T19:29:11.793Z,5.73
2023-04-26T19:34:14.401Z,5.62
2023-04-26T19:39:17.245Z,5.52
2023-04-26T19:44:22.524Z,5.42
2023-04-26T19:49:27.210Z,5.33
2023-04-26T19:54:32.283Z,5.24
2023-04-26T19:59:34.900Z,5.15
2023-04-26T20:04:37.559Z,5.07
2023-04-26T20:09:40.247Z,4.99
2023-04-26T20:14:42.822Z,4.89
2023-04-26T20:19:45.404Z,4.80
2023-04-26T20:24:47.961Z,4.71
2023-04-26T20:29:50.590Z,4.62
2023-04-26T20:34:53.631Z,4.56
2023-04-26T20:39:57.472Z,4.51
2023-04-26T20:45:02.224Z,4.44
2023-04-26T20:50:06.507Z,4.39
2023-04-26T20:55:09.411Z,4.34
2023-04-26T21:00:13.158Z,4.29
2023-04-26T21:05:15.818Z,4.22
2023-04-26T21:10:18.823Z,4.15
2023-04-26T21:15:21.722Z,4.11
2023-04-26T21:20:24.693Z,4.05
2023-04-26T21:25:28.000Z,3.99
2023-04-26T21:30:31.273Z,3.94
2023-04-26T21:35:34.231Z,3.88
2023-04-26T21:40:37.027Z,3.83
2023-04-26T21:45:39.963Z,3.74
2023-04-26T21:50:43.064Z,3.70
2023-04-26T21:55:53.032Z,3.65
2023-04-26T22:00:56.465Z,3.59
2023-04-26T22:05:59.338Z,3.54
2023-04-26T22:11:02.945Z,3.49
2023-04-26T22:16:06.797Z,3.45
2023-04-26T22:21:09.666Z,3.38
2023-04-26T22:26:12.533Z,3.30
2023-04-26T22:31:15.486Z,3.23
2023-04-26T22:36:18.491Z,3.17
2023-04-26T22:41:21.794Z,3.12
2023-04-26T22:46:24.677Z,3.06
2023-04-26T22:51:27.801Z,2.98
2023-04-26T22:56:30.909Z,2.90
2023-04-26T23:01:33.949Z,2.84
2023-04-26T23:06:37.120Z,2.77
2023-04-26T23:11:40.016Z,2.69
2023-04-26T23:16:42.920Z,2.63
2023-04-26T23:21:46.042Z,2.57
2023-04-26T23:26:49.046Z,2.52
2023-04-26T23:31:51.993Z,2.48
2023-04-26T23:36:54.952Z,2.46
2023-04-26T23:41:57.834Z,2.46
2023-04-26T23:47:01.121Z,2.47
2023-04-26T23:52:04.317Z,2.47
2023-04-26T23:57:07.258Z,2.48
